Time;durP1;ratioP1;P1;durP2;ratioP2;P2;SDS_P1;SDS_P2;PMS_P1;PMS_P2;Temp;Humidity;BMP_temperature;BMP_pressure;BME280_temperature;BME280_humidity;BME280_pressure;Samples;Min_cycle;Max_cycle;Signal;HPM_P1;HPM_P2
2022/06/13 00:01:00;;;;;;;6.30;2.78;;;23.90;79.00;;;;;;5076566;28;20079;-62
2022/06/13 00:03:26;;;;;;;7.78;3.30;;;24.00;76.00;;;;;;5066104;28;20067;-61
2022/06/13 00:05:52;;;;;;;7.85;2.95;;;23.70;78.60;;;;;;5082629;28;20471;-61
2022/06/13 00:08:17;;;;;;;6.95;2.70;;;24.00;75.70;;;;;;5072757;28;20044;-61
2022/06/13 00:10:43;;;;;;;6.18;2.95;;;23.90;78.80;;;;;;5073237;28;20059;-61
2022/06/13 00:13:09;;;;;;;7.88;3.05;;;24.00;75.60;;;;;;5071903;28;20037;-62
2022/06/13 00:15:35;;;;;;;7.28;3.00;;;23.70;75.70;;;;;;5073731;28;20498;-61
2022/06/13 00:18:00;;;;;;;7.45;3.25;;;24.00;78.80;;;;;;5076107;28;20045;-61
2022/06/13 00:20:26;;;;;;;8.60;3.00;;;23.70;78.50;;;;;;5071711;28;20121;-62
2022/06/13 00:22:52;;;;;;;8.32;3.30;;;;;;;;;;5070796;28;20047;-62
2022/06/13 00:25:18;;;;;;;7.88;2.70;;;23.70;73.80;;;;;;5081158;28;20041;-62
2022/06/13 00:27:44;;;;;;;7.13;3.25;;;23.70;78.60;;;;;;5074476;28;20052;-61
2022/06/13 00:30:10;;;;;;;5.85;2.97;;;23.70;78.70;;;;;;5067845;28;20098;-61
2022/06/13 00:32:36;;;;;;;6.80;3.22;;;23.70;78.50;;;;;;5071662;28;20056;-63
2022/06/13 00:35:02;;;;;;;7.90;3.13;;;23.50;75.50;;;;;;5084859;28;20085;-61
2022/06/13 00:37:28;;;;;;;7.88;3.10;;;23.70;78.90;;;;;;5078093;28;20136;-61
2022/06/13 00:39:54;;;;;;;6.68;3.00;;;23.70;79.00;;;;;;5058288;28;20033;-61
2022/06/13 00:42:21;;;;;;;7.75;2.97;;;23.70;78.70;;;;;;5057845;28;20105;-62
2022/06/13 00:45:09;;;;;;;7.25;2.95;;;23.70;78.50;;;;;;5073780;28;20489;-61
2022/06/13 00:47:36;;;;;;;8.38;3.08;;;23.70;78.80;;;;;;5075401;28;20087;-62
2022/06/13 00:50:02;;;;;;;7.88;3.22;;;23.70;75.80;;;;;;5046297;28;20577;-61
2022/06/13 00:52:34;;;;;;;5.93;2.95;;;23.80;78.60;;;;;;5037911;28;20048;-62
2022/06/13 00:55:00;;;;;;;5.88;2.60;;;23.50;78.80;;;;;;5054507;28;20044;-61
2022/06/13 00:57:27;;;;;;;7.22;3.08;;;23.60;75.30;;;;;;5056460;28;20039;-62
2022/06/13 00:59:58;;;;;;;8.30;3.08;;;23.80;75.90;;;;;;5073991;28;20044;-62
2022/06/13 01:02:23;;;;;;;9.10;3.38;;;23.70;76.10;;;;;;5025561;28;20119;-61
2022/06/13 01:04:51;;;;;;;7.18;3.08;;;23.60;78.60;;;;;;5069626;28;20116;-61
2022/06/13 01:07:16;;;;;;;7.68;2.83;;;23.70;75.90;;;;;;5039930;28;20094;-61
2022/06/13 01:12:27;;;;;;;6.82;3.03;;;23.50;78.60;;;;;;5072345;28;20067;-61
2022/06/13 01:15:17;;;;;;;7.60;3.00;;;23.50;73.70;;;;;;5033434;28;20107;-63
2022/06/13 01:18:04;;;;;;;8.80;3.00;;;23.70;78.90;;;;;;5035088;28;20396;-61
2022/06/13 01:20:54;;;;;;;7.55;3.30;;;23.50;78.90;;;;;;5035863;28;20041;-61
2022/06/13 01:23:57;;;;;;;9.63;3.13;;;23.60;74.90;;;;;;5045323;28;20048;-61
2022/06/13 01:27:04;;;;;;;6.68;3.10;;;23.40;73.80;;;;;;5046403;28;20049;-64
2022/06/13 01:29:33;;;;;;;8.57;3.10;;;23.30;78.60;;;;;;5060531;28;20084;-61
2022/06/13 01:32:23;;;;;;;7.05;3.03;;;23.50;74.40;;;;;;5070327;28;20053;-61
2022/06/13 01:34:53;;;;;;;6.63;2.88;;;23.60;78.90;;;;;;5071141;28;20045;-62
2022/06/13 01:37:34;;;;;;;7.55;2.92;;;23.50;76.10;;;;;;5046028;28;20044;-61
2022/06/13 01:40:27;;;;;;;6.32;3.08;;;23.70;78.00;;;;;;5067975;28;20059;-62
2022/06/13 01:43:25;;;;;;;7.05;3.10;;;23.50;75.00;;;;;;5048514;28;20043;-61
2022/06/13 01:46:01;;;;;;;6.30;2.80;;;23.50;79.00;;;;;;5029466;28;20136;-62
2022/06/13 01:48:37;;;;;;;7.15;3.20;;;23.30;78.50;;;;;;5028372;28;20049;-61
2022/06/13 01:51:11;;;;;;;6.43;2.90;;;23.50;78.80;;;;;;5052303;28;20383;-61
2022/06/13 01:53:59;;;;;;;9.85;3.67;;;23.40;74.70;;;;;;5061334;28;20057;-61
2022/06/13 01:56:40;;;;;;;6.85;3.53;;;23.40;74.70;;;;;;5037587;28;20095;-61
2022/06/13 01:59:19;;;;;;;7.57;2.72;;;23.30;74.70;;;;;;5053986;28;20449;-61
2022/06/13 02:01:58;;;;;;;6.18;3.10;;;23.40;79.00;;;;;;5055725;28;20044;-61
2022/06/13 02:04:39;;;;;;;8.75;3.17;;;23.60;76.40;;;;;;5070397;28;20049;-61
2022/06/13 02:07:07;;;;;;;9.30;3.30;;;23.50;74.90;;;;;;5052389;28;20158;-61
2022/06/13 02:09:38;;;;;;;7.72;3.25;;;23.40;78.80;;;;;;5044965;28;20061;-62
2022/06/13 02:12:04;;;;;;;7.90;2.97;;;23.20;76.10;;;;;;5032984;28;20418;-61
2022/06/13 02:14:36;;;;;;;6.85;3.28;;;23.50;79.30;;;;;;5018878;28;22301;-61
2022/06/13 02:17:12;;;;;;;10.10;3.47;;;23.50;74.80;;;;;;5056710;28;20048;-61
2022/06/13 02:19:53;;;;;;;8.52;3.35;;;23.40;79.00;;;;;;5049679;28;20048;-62
2022/06/13 02:22:28;;;;;;;9.10;3.65;;;23.50;76.80;;;;;;5040160;28;20053;-61
2022/06/13 02:24:58;;;;;;;7.38;3.72;;;23.10;79.00;;;;;;5045014;28;20033;-61
2022/06/13 02:27:29;;;;;;;8.55;3.30;;;23.50;76.50;;;;;;5047738;28;20048;-61
2022/06/13 02:29:56;;;;;;;7.03;2.95;;;23.30;77.10;;;;;;5045947;28;20120;-61
2022/06/13 02:32:45;;;;;;;9.90;3.67;;;23.30;76.30;;;;;;5072278;28;20044;-61
2022/06/13 02:35:17;;;;;;;6.60;3.20;;;23.60;79.20;;;;;;5028257;28;20060;-61
2022/06/13 02:37:50;;;;;;;7.43;2.75;;;23.10;78.80;;;;;;5035956;28;20045;-62
2022/06/13 02:40:23;;;;;;;;;;;23.30;76.60;;;;;;5034593;28;20048;-61
2022/06/13 02:42:58;;;;;;;8.60;3.08;;;23.30;79.40;;;;;;5055746;28;19926;-61
2022/06/13 02:45:54;;;;;;;6.95;3.15;;;23.40;79.30;;;;;;5065055;28;20048;-61
2022/06/13 02:48:50;;;;;;;7.22;3.10;;;23.30;79.30;;;;;;5050910;28;20056;-61
2022/06/13 02:51:53;;;;;;;9.65;3.42;;;23.00;74.00;;;;;;5064371;28;20060;-64
2022/06/13 02:54:24;;;;;;;7.68;3.33;;;23.30;78.90;;;;;;5050612;28;20052;-61
2022/06/13 02:57:23;;;;;;;9.52;3.17;;;23.20;79.20;;;;;;5051235;28;20131;-61
2022/06/13 02:59:52;;;;;;;8.73;3.58;;;23.30;75.40;;;;;;5067470;28;20131;-61
2022/06/13 03:02:42;;;;;;;8.30;3.45;;;23.30;76.10;;;;;;5051361;28;20063;-62
2022/06/13 03:05:33;;;;;;;5.47;3.28;;;23.50;79.40;;;;;;5057986;28;20483;-61
2022/06/13 03:07:59;;;;;;;7.95;3.33;;;23.30;79.40;;;;;;5053365;28;20048;-61
2022/06/13 03:10:33;;;;;;;9.35;2.90;;;23.50;76.40;;;;;;5062376;28;20078;-61
2022/06/13 03:13:06;;;;;;;6.72;3.63;;;23.20;76.50;;;;;;5034046;28;20442;-62
2022/06/13 03:16:03;;;;;;;;;;;23.30;75.10;;;;;;5055669;28;20476;-61
2022/06/13 03:18:34;;;;;;;7.60;3.13;;;23.10;79.20;;;;;;4983680;28;19992;-61
2022/06/13 03:21:10;;;;;;;6.72;2.80;;;23.30;79.70;;;;;;4972263;28;20059;-61
2022/06/13 03:23:55;;;;;;;8.13;3.67;;;23.20;79.70;;;;;;4970399;28;20053;-61
2022/06/13 03:26:25;;;;;;;7.90;3.30;;;23.20;75.10;;;;;;4989714;28;20078;-61
2022/06/13 03:28:57;;;;;;;8.82;3.75;;;23.30;76.80;;;;;;4974699;28;20050;-62
2022/06/13 03:31:33;;;;;;;9.52;3.45;;;23.30;75.20;;;;;;4993056;28;20055;-61
2022/06/13 03:34:00;;;;;;;8.15;3.65;;;23.50;79.70;;;;;;4960082;28;20548;-61
2022/06/13 03:36:30;;;;;;;8.95;3.47;;;23.30;76.80;;;;;;4979407;28;20078;-61
2022/06/13 03:39:16;;;;;;;7.75;3.10;;;23.30;79.40;;;;;;4944465;28;20106;-61
2022/06/13 03:41:51;;;;;;;7.90;3.20;;;23.30;75.30;;;;;;4993446;28;20104;-61
2022/06/13 03:44:20;;;;;;;6.28;2.90;;;23.10;79.20;;;;;;4973956;28;20046;-63
2022/06/13 03:46:56;;;;;;;10.00;3.55;;;23.30;76.90;;;;;;4997153;28;20054;-63
2022/06/13 03:49:30;;;;;;;7.20;3.22;;;23.40;79.70;;;;;;4993415;28;20058;-63
2022/06/13 03:51:56;;;;;;;7.40;3.13;;;23.30;80.20;;;;;;4994322;28;20050;-63
2022/06/13 03:54:28;;;;;;;7.53;3.45;;;23.30;79.50;;;;;;5018409;28;20060;-63
2022/06/13 03:57:09;;;;;;;6.85;3.35;;;23.30;79.60;;;;;;5067522;28;20097;-63
2022/06/13 03:59:39;;;;;;;10.18;3.40;;;23.20;76.90;;;;;;5058938;28;20045;-63
2022/06/13 04:02:08;;;;;;;8.80;3.50;;;23.40;77.20;;;;;;5067471;28;20079;-64
2022/06/13 04:04:37;;;;;;;8.23;3.60;;;23.20;79.50;;;;;;5053551;28;20474;-65
2022/06/13 04:07:04;;;;;;;8.77;3.55;;;23.20;76.90;;;;;;5073391;28;20044;-63
2022/06/13 04:09:34;;;;;;;8.85;3.30;;;23.40;79.60;;;;;;5067364;28;20406;-63
2022/06/13 04:12:12;;;;;;;5.53;3.13;;;23.50;77.10;;;;;;5060108;28;20401;-61
2022/06/13 04:14:59;;;;;;;6.72;3.20;;;23.30;75.60;;;;;;5074952;28;20101;-62
2022/06/13 04:17:57;;;;;;;6.75;3.15;;;23.30;75.60;;;;;;5080570;28;20083;-63
2022/06/13 04:20:39;;;;;;;8.32;3.25;;;23.20;75.90;;;;;;5074452;28;20502;-63
2022/06/13 04:23:30;;;;;;;6.95;3.25;;;23.50;75.80;;;;;;5062392;28;20474;-61
2022/06/13 04:26:12;;;;;;;7.07;3.35;;;23.10;79.50;;;;;;5071736;28;20087;-63
2022/06/13 04:28:55;;;;;;;7.95;3.15;;;23.40;79.80;;;;;;5056476;28;20044;-63
2022/06/13 04:31:21;;;;;;;;;;;23.20;75.90;;;;;;5075158;28;20128;-63
2022/06/13 04:33:53;;;;;;;7.78;2.85;;;23.30;79.80;;;;;;5075509;28;19970;-61
2022/06/13 04:36:19;;;;;;;7.20;3.13;;;;;;;;;;5052629;28;20051;-63
2022/06/13 04:38:46;;;;;;;7.28;3.17;;;23.10;74.60;;;;;;5070850;28;20049;-63
2022/06/13 04:41:12;;;;;;;8.27;3.03;;;23.40;76.90;;;;;;5058082;28;20044;-64
2022/06/13 04:43:40;;;;;;;6.47;2.83;;;23.60;79.70;;;;;;5055045;28;20049;-61
2022/06/13 04:46:17;;;;;;;6.78;3.00;;;23.70;79.70;;;;;;5021196;28;20049;-62
2022/06/13 04:48:44;;;;;;;6.90;3.30;;;23.80;79.70;;;;;;5053955;28;20122;-63
2022/06/13 04:51:24;;;;;;;7.53;3.55;;;23.90;79.60;;;;;;5074550;28;20048;-63
2022/06/13 04:54:02;;;;;;;8.07;3.05;;;23.80;79.20;;;;;;5044701;28;20091;-61
2022/06/13 04:56:27;;;;;;;7.20;3.13;;;24.00;75.50;;;;;;5060726;28;20119;-61
2022/06/13 04:58:54;;;;;;;6.28;2.55;;;24.30;78.80;;;;;;5065532;28;20128;-62
2022/06/13 05:01:48;;;;;;;7.43;3.13;;;24.40;76.10;;;;;;5048096;28;20100;-61
2022/06/13 05:04:18;;;;;;;7.32;3.17;;;24.20;74.60;;;;;;5066826;28;20127;-61
2022/06/13 05:06:58;;;;;;;5.63;2.65;;;24.70;74.30;;;;;;5058360;28;20040;-62
2022/06/13 05:09:29;;;;;;;8.55;3.00;;;24.60;74.00;;;;;;5056099;28;20108;-62
2022/06/13 05:12:12;;;;;;;8.35;3.30;;;24.80;75.40;;;;;;5063761;28;20053;-62
2022/06/13 05:14:47;;;;;;;7.82;3.45;;;25.00;73.60;;;;;;5056766;28;20497;-62
2022/06/13 05:17:41;;;;;;;5.38;2.63;;;24.90;73.10;;;;;;5050683;28;20124;-62
2022/06/13 05:20:40;;;;;;;8.02;3.08;;;25.20;73.20;;;;;;5067808;28;20040;-64
2022/06/13 05:23:18;;;;;;;7.03;3.30;;;25.20;73.20;;;;;;5054892;28;20113;-64
2022/06/13 05:25:53;;;;;;;6.18;2.70;;;25.10;73.10;;;;;;5058940;28;20044;-62
2022/06/13 05:28:24;;;;;;;5.30;2.58;;;25.20;74.70;;;;;;5073469;28;20109;-62
2022/06/13 05:30:51;;;;;;;6.63;2.88;;;25.10;74.70;;;;;;5074465;28;20371;-64
2022/06/13 05:33:18;;;;;;;7.53;2.97;;;25.10;74.70;;;;;;5083310;28;20048;-64
2022/06/13 05:35:44;;;;;;;6.13;2.78;;;25.10;74.70;;;;;;5055073;28;20041;-61
2022/06/13 05:38:42;;;;;;;6.35;3.13;;;24.80;74.10;;;;;;5052387;28;20097;-62
2022/06/13 05:41:08;;;;;;;6.20;2.47;;;25.00;73.20;;;;;;5069255;28;20129;-64
2022/06/13 05:43:34;;;;;;;6.20;2.80;;;25.00;74.40;;;;;;5074526;28;20049;-64
2022/06/13 05:46:00;;;;;;;6.07;2.65;;;24.90;74.50;;;;;;5067466;28;20063;-64
2022/06/13 05:48:26;;;;;;;8.55;2.90;;;24.90;74.50;;;;;;5074407;28;20133;-64
2022/06/13 05:50:52;;;;;;;7.53;2.58;;;24.70;77.40;;;;;;5060398;28;20044;-65
2022/06/13 05:53:20;;;;;;;5.85;2.65;;;25.00;74.60;;;;;;5072093;28;20040;-62
2022/06/13 05:55:46;;;;;;;4.93;2.42;;;24.70;74.80;;;;;;5073856;28;20048;-61
2022/06/13 05:58:12;;;;;;;5.55;2.40;;;24.60;74.60;;;;;;5064547;28;20040;-62
2022/06/13 06:00:43;;;;;;;6.10;2.55;;;24.90;74.80;;;;;;5054013;28;20056;-65
2022/06/13 06:03:09;;;;;;;5.28;2.20;;;25.00;73.50;;;;;;5065212;28;20048;-62
2022/06/13 06:05:34;;;;;;;6.72;2.42;;;24.90;74.70;;;;;;5073555;28;20044;-62
2022/06/13 06:08:00;;;;;;;5.72;2.25;;;25.00;74.70;;;;;;5065782;28;20513;-61
2022/06/13 06:10:32;;;;;;;5.65;2.10;;;25.10;77.50;;;;;;5071602;28;20040;-65
2022/06/13 06:12:57;;;;;;;6.20;2.65;;;25.20;73.50;;;;;;5071044;28;20125;-62
2022/06/13 06:15:23;;;;;;;4.97;2.20;;;25.20;74.70;;;;;;5072769;28;20083;-62
2022/06/13 06:17:49;;;;;;;4.38;2.13;;;25.50;74.50;;;;;;5039134;28;20495;-62
2022/06/13 06:20:17;;;;;;;3.90;1.92;;;25.30;74.40;;;;;;5053777;28;20048;-62
2022/06/13 06:22:43;;;;;;;4.45;2.03;;;25.60;74.70;;;;;;5068170;28;20553;-62
2022/06/13 06:25:09;;;;;;;5.25;2.10;;;25.70;74.20;;;;;;5068159;28;20110;-62
2022/06/13 06:27:35;;;;;;;4.93;1.90;;;25.60;73.60;;;;;;5059264;28;20513;-62
2022/06/13 06:30:00;;;;;;;4.22;1.80;;;26.00;74.70;;;;;;5047345;28;20044;-62
2022/06/13 06:32:26;;;;;;;4.57;2.00;;;26.00;73.70;;;;;;5062145;28;20036;-63
2022/06/13 06:34:52;;;;;;;4.60;1.83;;;26.10;73.70;;;;;;5055681;28;20367;-62
2022/06/13 06:37:18;;;;;;;5.28;2.08;;;26.40;73.60;;;;;;5073648;28;20041;-62
2022/06/13 06:39:43;;;;;;;5.20;2.15;;;26.10;73.30;;;;;;5072471;28;20036;-61
2022/06/13 06:42:09;;;;;;;4.47;2.00;;;26.50;74.10;;;;;;5067495;28;20475;-61
2022/06/13 06:44:35;;;;;;;4.95;2.03;;;26.50;73.10;;;;;;5068939;28;20048;-68
2022/06/13 06:47:01;;;;;;;5.40;1.92;;;26.30;72.90;;;;;;5072458;28;20045;-61
2022/06/13 06:49:27;;;;;;;5.45;1.60;;;26.10;72.80;;;;;;5071682;28;20067;-61
2022/06/13 06:51:52;;;;;;;5.20;2.33;;;26.50;73.20;;;;;;5071535;28;20036;-61
2022/06/13 06:59:53;;;;;;;4.85;2.00;;;26.20;72.30;;;;;;5062250;28;20056;-61
2022/06/13 07:02:23;;;;;;;6.88;2.22;;;25.90;71.90;;;;;;5064528;28;20115;-61
2022/06/13 07:04:51;;;;;;;4.57;2.33;;;26.10;73.50;;;;;;5071204;28;20049;-61
2022/06/13 07:07:17;;;;;;;5.75;2.10;;;26.10;73.80;;;;;;5070227;28;20452;-62
2022/06/13 07:09:43;;;;;;;5.07;1.77;;;26.00;73.50;;;;;;5077757;28;20048;-62
2022/06/13 07:12:09;;;;;;;5.03;1.85;;;25.60;77.00;;;;;;5072674;28;20040;-72
2022/06/13 07:14:35;;;;;;;4.50;1.92;;;25.50;73.60;;;;;;5052325;28;20409;-62
2022/06/13 07:17:02;;;;;;;4.20;1.80;;;25.80;74.20;;;;;;5086002;28;20045;-65
2022/06/13 07:19:28;;;;;;;7.40;1.70;;;25.40;74.20;;;;;;5082336;28;20044;-68
2022/06/13 07:21:54;;;;;;;4.05;1.50;;;25.10;73.70;;;;;;5085230;28;20434;-66
2022/06/13 07:24:22;;;;;;;2.78;1.30;;;24.90;73.40;;;;;;5088178;28;20040;-62
2022/06/13 07:26:49;;;;;;;3.85;1.42;;;25.20;72.50;;;;;;5080972;28;20037;-62
2022/06/13 07:29:17;;;;;;;3.38;1.20;;;25.10;73.20;;;;;;5084751;28;20044;-62
2022/06/13 07:31:44;;;;;;;2.28;1.23;;;25.10;76.50;;;;;;5067085;28;20066;-62
2022/06/13 07:34:21;;;;;;;4.40;1.30;;;25.00;73.40;;;;;;5075700;28;20118;-62
2022/06/13 07:36:48;;;;;;;4.40;1.52;;;25.10;74.10;;;;;;5074411;28;20040;-63
2022/06/13 07:39:14;;;;;;;4.05;1.23;;;25.00;73.80;;;;;;5075499;28;20514;-62
2022/06/13 07:41:39;;;;;;;3.80;1.10;;;25.10;73.50;;;;;;5080344;28;20068;-62
2022/06/13 07:44:06;;;;;;;2.35;0.98;;;25.20;73.40;;;;;;5076758;28;20041;-62
2022/06/13 07:46:32;;;;;;;2.92;1.20;;;25.00;73.50;;;;;;5056711;28;20481;-61
2022/06/13 07:48:58;;;;;;;3.55;1.23;;;25.20;73.30;;;;;;5076675;28;20043;-61
2022/06/13 07:51:24;;;;;;;3.13;1.13;;;25.10;76.40;;;;;;5062407;28;20048;-62
2022/06/13 07:53:50;;;;;;;4.10;1.27;;;25.10;73.40;;;;;;5056640;28;20069;-63
2022/06/13 07:56:17;;;;;;;2.42;1.05;;;25.20;76.50;;;;;;5039306;28;20114;-61
2022/06/13 07:58:44;;;;;;;2.70;1.00;;;25.20;73.40;;;;;;5075737;28;20064;-62
2022/06/13 08:01:10;;;;;;;4.45;1.23;;;25.20;73.40;;;;;;5072666;28;20036;-61
2022/06/13 08:03:36;;;;;;;3.92;1.40;;;25.40;73.10;;;;;;5051512;28;20067;-62
2022/06/13 08:06:02;;;;;;;3.30;0.98;;;25.20;73.20;;;;;;5063678;28;20036;-61
2022/06/13 08:08:28;;;;;;;2.60;0.98;;;25.40;73.10;;;;;;5073512;28;20055;-62
2022/06/13 08:10:55;;;;;;;3.10;1.20;;;25.10;72.80;;;;;;5074657;28;20052;-62
2022/06/13 08:13:21;;;;;;;3.80;1.30;;;25.20;72.90;;;;;;5075845;28;20083;-63
2022/06/13 08:15:47;;;;;;;3.85;1.40;;;24.90;73.00;;;;;;5041272;28;20055;-62
2022/06/13 08:18:13;;;;;;;4.85;1.63;;;25.30;73.00;;;;;;5073348;28;20052;-61
2022/06/13 08:20:40;;;;;;;4.03;1.38;;;25.30;73.50;;;;;;5074624;28;20123;-62
2022/06/13 08:23:08;;;;;;;4.53;1.52;;;25.20;74.00;;;;;;5064336;28;20119;-61
2022/06/13 08:25:35;;;;;;;3.42;1.35;;;25.50;76.70;;;;;;5058136;28;20600;-61
2022/06/13 08:28:01;;;;;;;3.03;1.10;;;25.50;73.40;;;;;;5073227;28;20057;-62
2022/06/13 08:30:31;;;;;;;5.63;1.88;;;25.40;73.50;;;;;;5056613;28;20397;-62
2022/06/13 08:32:57;;;;;;;2.80;1.20;;;25.50;73.70;;;;;;5054244;28;20515;-64
2022/06/13 08:35:23;;;;;;;5.18;1.80;;;25.50;73.30;;;;;;5071217;28;20119;-63
2022/06/13 08:37:49;;;;;;;3.80;1.40;;;25.40;76.30;;;;;;5075679;28;20060;-62
2022/06/13 08:40:14;;;;;;;4.25;1.50;;;25.50;73.50;;;;;;5074409;28;20040;-62
2022/06/13 08:42:52;;;;;;;4.25;1.80;;;25.50;76.60;;;;;;5067050;28;20114;-62
2022/06/13 08:45:36;;;;;;;4.13;1.60;;;25.20;72.30;;;;;;5041633;28;20432;-61
2022/06/13 08:48:27;;;;;;;4.15;1.60;;;25.50;74.20;;;;;;5057190;28;20058;-61
2022/06/13 08:51:18;;;;;;;7.90;1.80;;;25.40;72.30;;;;;;5019561;28;20045;-62
2022/06/13 08:53:53;;;;;;;4.47;1.63;;;25.40;72.20;;;;;;5001764;28;20046;-62
2022/06/13 08:56:20;;;;;;;6.53;2.08;;;25.60;73.90;;;;;;4996792;28;20133;-62
2022/06/13 08:59:22;;;;;;;5.38;1.77;;;25.70;73.50;;;;;;5016997;28;20104;-62
2022/06/13 09:02:00;;;;;;;5.88;1.90;;;26.00;72.40;;;;;;5015933;28;20076;-61
2022/06/13 09:04:35;;;;;;;5.38;1.73;;;26.20;72.30;;;;;;5000224;28;20091;-64
2022/06/13 09:07:15;;;;;;;6.43;2.10;;;26.00;72.40;;;;;;5013100;28;20050;-61
2022/06/13 09:09:55;;;;;;;8.45;2.50;;;26.00;72.40;;;;;;4997261;28;20531;-62
2022/06/13 09:12:26;;;;;;;7.93;2.15;;;26.10;72.40;;;;;;5013107;28;20175;-62
2022/06/13 09:15:06;;;;;;;4.20;1.93;;;26.00;73.30;;;;;;4998900;28;20065;-62
2022/06/13 09:17:47;;;;;;;5.13;1.90;;;26.10;72.00;;;;;;5032144;28;20053;-62
2022/06/13 09:20:31;;;;;;;6.50;2.20;;;26.10;72.50;;;;;;5017317;28;20568;-62
2022/06/13 09:23:09;;;;;;;7.82;2.35;;;26.20;72.60;;;;;;5031624;28;20454;-62
2022/06/13 09:26:27;;;;;;;8.45;2.33;;;26.10;72.30;;;;;;5014691;28;20084;-66
2022/06/13 09:29:06;;;;;;;7.65;2.33;;;26.10;72.50;;;;;;5001507;28;20049;-62
2022/06/13 09:31:41;;;;;;;7.72;2.53;;;26.40;72.60;;;;;;5013154;28;20054;-62
2022/06/13 09:34:19;;;;;;;5.47;2.00;;;26.30;74.10;;;;;;5012639;28;20050;-62
2022/06/13 09:37:34;;;;;;;8.52;2.25;;;26.30;72.50;;;;;;5012184;28;20073;-62
2022/06/13 09:40:00;;;;;;;9.82;2.40;;;26.20;72.60;;;;;;4943336;28;20052;-61
2022/06/13 09:42:33;;;;;;;5.43;2.00;;;26.40;73.20;;;;;;4935294;29;20099;-62
2022/06/13 09:45:15;;;;;;;7.07;2.20;;;26.30;73.70;;;;;;4935762;29;20123;-62
2022/06/13 09:47:59;;;;;;;6.88;2.15;;;26.40;72.80;;;;;;4934645;29;20099;-62
2022/06/13 09:51:05;;;;;;;7.40;2.20;;;26.20;72.60;;;;;;4934492;29;20143;-62
2022/06/13 09:53:52;;;;;;;7.53;2.42;;;26.40;72.50;;;;;;4915985;29;20060;-61
2022/06/13 09:56:23;;;;;;;7.97;1.90;;;26.40;72.40;;;;;;4900077;29;20198;-62
2022/06/13 09:59:14;;;;;;;5.75;2.20;;;26.10;72.20;;;;;;4915620;29;20044;-62
2022/06/13 10:02:12;;;;;;;6.95;2.13;;;26.30;74.30;;;;;;4915812;29;20119;-61
2022/06/13 10:04:47;;;;;;;5.32;1.92;;;26.30;72.60;;;;;;4889191;29;20052;-61
2022/06/13 10:07:23;;;;;;;7.50;2.05;;;26.40;72.50;;;;;;4886394;29;20111;-61
2022/06/13 10:10:10;;;;;;;6.95;1.90;;;26.30;74.00;;;;;;4896344;29;20146;-61
2022/06/13 10:13:30;;;;;;;6.90;2.05;;;26.20;72.40;;;;;;4910069;29;20058;-61
2022/06/13 10:16:11;;;;;;;4.50;1.70;;;26.30;74.30;;;;;;4810683;29;20061;-62
2022/06/13 10:18:56;;;;;;;6.25;2.00;;;26.30;72.70;;;;;;4786851;29;20059;-62
2022/06/13 10:21:42;;;;;;;5.20;1.70;;;26.20;72.30;;;;;;4786343;30;20059;-61
2022/06/13 10:24:52;;;;;;;6.78;2.45;;;26.30;72.50;;;;;;4786347;30;20063;-61
2022/06/13 10:28:06;;;;;;;5.95;1.95;;;26.20;72.50;;;;;;4800172;29;20063;-61
2022/06/13 10:31:18;;;;;;;5.53;1.80;;;26.30;72.60;;;;;;4846282;29;20541;-62
2022/06/13 10:34:00;;;;;;;4.20;1.70;;;26.40;72.50;;;;;;4825746;29;20038;-62
2022/06/13 10:36:39;;;;;;;6.40;2.13;;;26.40;72.80;;;;;;4840850;29;20511;-62
2022/06/13 10:39:13;;;;;;;3.83;1.48;;;26.20;72.40;;;;;;4825731;29;20066;-61
2022/06/13 10:41:42;;;;;;;6.15;1.88;;;26.30;73.20;;;;;;4826918;29;20066;-61
2022/06/13 10:44:18;;;;;;;3.45;1.58;;;26.30;73.90;;;;;;4824976;29;20099;-62
2022/06/13 10:46:55;;;;;;;6.13;1.75;;;26.30;73.90;;;;;;4822553;29;20166;-61
2022/06/13 10:49:58;;;;;;;10.80;2.50;;;26.40;72.60;;;;;;4822431;29;20534;-62
2022/06/13 10:52:26;;;;;;;6.75;2.05;;;26.30;72.80;;;;;;4856971;29;20037;-61
2022/06/13 10:54:56;;;;;;;5.80;1.70;;;26.30;74.20;;;;;;4873440;29;20493;-61
2022/06/13 10:57:32;;;;;;;7.32;1.80;;;26.30;74.40;;;;;;4862416;29;20457;-73
2022/06/13 11:00:12;;;;;;;4.57;1.92;;;26.20;72.70;;;;;;4862608;29;20052;-62
2022/06/13 11:02:37;;;;;;;5.85;1.58;;;26.10;74.30;;;;;;4872266;29;20049;-62
2022/06/13 11:05:16;;;;;;;4.55;1.60;;;26.40;74.00;;;;;;4860084;29;20138;-64
2022/06/13 11:07:48;;;;;;;7.20;1.88;;;26.30;72.90;;;;;;4867410;29;20064;-66
2022/06/13 11:10:33;;;;;;;4.72;1.52;;;26.40;74.40;;;;;;4913679;29;20521;-62
2022/06/13 11:13:00;;;;;;;4.85;1.70;;;26.20;74.10;;;;;;4919363;29;20484;-61
2022/06/13 11:24:12;;;;;;;5.03;1.60;;;26.40;72.80;;;;;;4938845;29;20078;-62
2022/06/13 11:29:23;;;;;;;5.80;1.77;;;26.50;74.30;;;;;;5018125;28;20046;-62
2022/06/13 11:31:50;;;;;;;4.00;1.58;;;26.60;74.10;;;;;;5022870;28;20055;-62
2022/06/13 11:34:21;;;;;;;5.93;1.83;;;26.60;74.20;;;;;;5013551;28;20053;-61
2022/06/13 11:36:58;;;;;;;7.68;1.85;;;26.60;74.10;;;;;;5020723;28;20148;-62
2022/06/13 11:39:39;;;;;;;4.15;1.67;;;26.60;74.60;;;;;;5032855;28;20121;-63
2022/06/13 11:42:13;;;;;;;4.90;2.03;;;26.40;72.70;;;;;;5021170;28;20571;-63
2022/06/13 11:44:43;;;;;;;5.57;1.38;;;26.80;74.00;;;;;;5011565;28;20056;-61
2022/06/13 11:47:09;;;;;;;4.10;1.55;;;26.40;74.20;;;;;;5029902;28;20135;-62
2022/06/13 11:49:42;;;;;;;4.47;1.50;;;26.60;74.00;;;;;;4998629;28;20492;-62
2022/06/13 11:52:11;;;;;;;4.00;1.50;;;26.60;74.30;;;;;;5016812;28;20050;-62
2022/06/13 11:54:46;;;;;;;3.80;1.50;;;26.30;73.90;;;;;;5054599;28;20052;-65
2022/06/13 11:57:17;;;;;;;3.83;1.48;;;26.60;74.00;;;;;;5028540;28;20153;-62
2022/06/13 11:59:44;;;;;;;5.65;1.73;;;26.50;73.20;;;;;;5032408;28;20120;-62
2022/06/13 12:02:20;;;;;;;8.43;1.70;;;26.50;73.70;;;;;;5022688;28;20054;-63
2022/06/13 12:04:46;;;;;;;5.72;1.45;;;26.80;74.70;;;;;;5023735;28;20042;-62
2022/06/13 12:07:22;;;;;;;5.28;1.55;;;26.40;74.20;;;;;;5031599;28;20438;-62
2022/06/13 12:09:52;;;;;;;4.75;1.90;;;26.30;74.40;;;;;;5016719;28;20391;-61
2022/06/13 12:12:18;;;;;;;5.63;1.63;;;26.30;74.30;;;;;;5017271;28;20050;-61
2022/06/13 12:14:44;;;;;;;5.25;1.80;;;26.40;74.00;;;;;;5033524;28;20046;-61
2022/06/13 12:17:23;;;;;;;9.82;1.85;;;26.30;73.60;;;;;;5057837;28;20060;-61
2022/06/13 12:20:04;;;;;;;5.47;1.52;;;26.50;73.00;;;;;;5060221;28;20044;-62
2022/06/13 12:22:39;;;;;;;7.03;1.70;;;26.10;72.60;;;;;;5034096;28;20053;-61
2022/06/13 12:25:25;;;;;;;4.55;1.65;;;26.20;72.50;;;;;;5038326;28;20085;-61
2022/06/13 12:28:06;;;;;;;5.30;1.55;;;26.10;74.40;;;;;;5038242;28;20492;-61
2022/06/13 12:30:58;;;;;;;3.63;1.23;;;26.20;72.60;;;;;;5055979;28;20037;-62
2022/06/13 12:33:45;;;;;;;6.82;1.80;;;25.90;72.70;;;;;;5038032;28;20075;-62
2022/06/13 12:36:29;;;;;;;6.65;2.05;;;26.10;72.50;;;;;;5059343;28;20051;-62
2022/06/13 12:39:31;;;;;;;5.47;1.73;;;25.90;72.30;;;;;;5054755;28;20049;-62
2022/06/13 12:42:20;;;;;;;5.45;1.35;;;25.70;72.20;;;;;;5055780;28;20049;-62
2022/06/13 12:45:04;;;;;;;5.28;1.23;;;26.00;71.90;;;;;;4978133;28;20082;-62
2022/06/13 12:47:43;;;;;;;3.97;1.20;;;25.80;71.90;;;;;;4987609;28;20053;-62
2022/06/13 12:50:46;;;;;;;3.30;1.20;;;25.90;71.90;;;;;;4997580;28;20054;-62
2022/06/13 12:53:15;;;;;;;;;;;25.80;72.10;;;;;;5013975;28;20531;-61
2022/06/13 12:55:55;;;;;;;5.57;2.00;;;25.80;71.70;;;;;;5013315;28;19917;-62
2022/06/13 12:58:26;;;;;;;5.45;1.40;;;26.00;71.50;;;;;;4965542;28;20527;-62
2022/06/13 13:01:02;;;;;;;6.15;1.42;;;25.70;72.80;;;;;;4980778;28;20436;-62
2022/06/13 13:03:46;;;;;;;4.88;1.60;;;25.70;75.60;;;;;;4997260;28;20404;-62
2022/06/13 13:06:31;;;;;;;3.60;1.20;;;25.80;71.30;;;;;;5012956;28;20042;-62
2022/06/13 13:09:27;;;;;;;3.70;1.40;;;25.40;75.50;;;;;;4995144;28;20137;-63
2022/06/13 13:12:05;;;;;;;3.92;1.30;;;25.80;71.60;;;;;;4996888;28;20081;-62
2022/06/13 13:14:39;;;;;;;5.10;1.30;;;25.60;71.20;;;;;;4996500;28;20050;-63
2022/06/13 13:17:17;;;;;;;4.05;1.10;;;25.50;71.30;;;;;;5012870;28;20136;-63
2022/06/13 13:20:04;;;;;;;2.97;1.20;;;25.90;73.00;;;;;;4996369;28;20448;-62
2022/06/13 13:22:52;;;;;;;9.65;1.30;;;25.80;71.40;;;;;;5013238;28;20131;-61
2022/06/13 13:25:26;;;;;;;5.22;1.50;;;25.40;72.50;;;;;;5040790;28;20420;-61
2022/06/13 13:28:11;;;;;;;7.78;1.50;;;25.80;71.60;;;;;;5074440;28;20514;-61
2022/06/13 13:30:50;;;;;;;6.22;1.40;;;25.50;72.60;;;;;;5071025;28;20498;-61
2022/06/13 13:33:40;;;;;;;11.15;1.85;;;25.40;72.90;;;;;;5045778;28;20178;-61
2022/06/13 13:36:21;;;;;;;4.18;1.45;;;25.30;71.10;;;;;;5058260;28;20394;-62
2022/06/13 13:38:59;;;;;;;5.75;1.90;;;25.40;71.40;;;;;;5074616;28;20055;-61
2022/06/13 13:41:46;;;;;;;7.40;1.42;;;25.60;71.40;;;;;;5072181;28;20041;-62
2022/06/13 13:44:23;;;;;;;6.93;1.23;;;25.50;71.40;;;;;;5042939;28;20120;-61
2022/06/13 13:46:58;;;;;;;8.32;1.38;;;25.40;75.50;;;;;;5071679;28;20055;-62
2022/06/13 13:49:31;;;;;;;5.60;1.20;;;25.50;73.30;;;;;;5053056;28;20080;-61